Time;durP1;ratioP1;P1;durP2;ratioP2;P2;SDS_P1;SDS_P2;PMS_P1;PMS_P2;Temp;Humidity;BMP_temperature;BMP_pressure;BME280_temperature;BME280_humidity;BME280_pressure;Samples;Min_cycle;Max_cycle;Signal;HPM_P1;HPM_P2
2021/03/31 00:00:50;;;;;;;20.48;10.65;;;12.80;55.60;;;;;;5095598;28;20032;-82
2021/03/31 00:03:19;;;;;;;20.63;11.00;;;12.80;56.10;;;;;;5094311;28;20082;-82
2021/03/31 00:05:44;;;;;;;19.95;10.70;;;12.70;56.30;;;;;;5076821;28;20103;-82
2021/03/31 00:08:10;;;;;;;21.27;10.90;;;12.70;56.50;;;;;;5095420;28;20115;-83
2021/03/31 00:10:50;;;;;;;23.08;10.88;;;12.60;56.80;;;;;;5095204;28;20073;-83
2021/03/31 00:13:18;;;;;;;19.20;10.95;;;12.60;57.10;;;;;;5095287;28;20108;-83
2021/03/31 00:15:45;;;;;;;18.27;10.43;;;12.50;57.10;;;;;;5095012;28;20024;-81
2021/03/31 00:18:12;;;;;;;22.08;11.10;;;12.50;57.20;;;;;;5076764;28;20024;-83
2021/03/31 00:20:39;;;;;;;19.60;10.35;;;12.40;57.40;;;;;;5077081;28;20024;-82
2021/03/31 00:23:06;;;;;;;20.15;10.63;;;12.30;57.30;;;;;;5094882;28;20111;-82
2021/03/31 00:25:32;;;;;;;16.15;10.05;;;12.30;57.40;;;;;;5076824;28;20082;-82
2021/03/31 00:27:58;;;;;;;16.92;10.35;;;12.30;57.50;;;;;;5076803;28;20032;-82
2021/03/31 00:30:24;;;;;;;20.10;10.40;;;12.20;57.40;;;;;;5076888;28;20067;-82
2021/03/31 00:32:50;;;;;;;16.55;10.23;;;12.20;57.30;;;;;;5094800;28;20023;-83
2021/03/31 00:35:16;;;;;;;23.48;10.88;;;12.20;57.10;;;;;;5076718;28;20358;-83
2021/03/31 00:37:41;;;;;;;19.50;10.85;;;12.20;56.80;;;;;;5094645;28;20032;-83
2021/03/31 00:40:11;;;;;;;18.20;10.63;;;12.20;56.70;;;;;;5094758;28;20028;-83
2021/03/31 00:42:37;;;;;;;20.13;10.50;;;12.20;56.90;;;;;;5092219;28;20063;-82
2021/03/31 00:45:06;;;;;;;27.13;11.20;;;12.10;57.00;;;;;;5114883;28;20039;-82
2021/03/31 00:47:31;;;;;;;19.50;10.73;;;12.00;56.90;;;;;;5082066;28;20035;-82
2021/03/31 00:49:57;;;;;;;21.50;11.18;;;12.00;56.80;;;;;;5076536;28;20032;-83
2021/03/31 00:52:23;;;;;;;20.00;10.80;;;12.00;57.00;;;;;;5107106;28;20028;-82
2021/03/31 00:54:48;;;;;;;20.98;10.20;;;12.00;56.90;;;;;;5106841;28;20028;-83
2021/03/31 00:57:15;;;;;;;20.55;10.13;;;11.90;57.00;;;;;;5076110;28;20036;-83
2021/03/31 00:59:41;;;;;;;22.60;10.80;;;11.90;57.00;;;;;;5076083;28;20103;-83
2021/03/31 01:02:07;;;;;;;17.85;9.75;;;11.80;57.20;;;;;;5076304;28;20453;-82
2021/03/31 01:04:32;;;;;;;18.83;11.10;;;11.80;57.10;;;;;;5076166;28;20020;-83
2021/03/31 01:06:58;;;;;;;16.70;9.73;;;11.80;56.90;;;;;;5076143;28;20032;-82
2021/03/31 01:09:24;;;;;;;18.02;10.05;;;11.80;56.40;;;;;;5094410;28;20028;-83
2021/03/31 01:11:55;;;;;;;17.15;9.60;;;11.80;56.10;;;;;;5094018;28;20374;-83
2021/03/31 01:14:39;;;;;;;16.33;9.45;;;11.70;55.80;;;;;;5093673;28;20032;-82
2021/03/31 01:17:10;;;;;;;18.35;9.05;;;11.80;56.20;;;;;;5094103;28;20020;-83
2021/03/31 01:19:57;;;;;;;16.17;8.70;;;11.70;56.20;;;;;;5097704;28;20481;-82
2021/03/31 01:22:22;;;;;;;18.55;8.88;;;11.70;56.40;;;;;;5093837;28;20028;-83
2021/03/31 01:25:14;;;;;;;17.35;9.15;;;11.70;56.70;;;;;;5093944;28;20529;-83
2021/03/31 01:27:52;;;;;;;18.42;10.07;;;11.70;57.00;;;;;;5048639;28;20044;-83
2021/03/31 01:30:53;;;;;;;18.33;9.50;;;11.60;57.50;;;;;;5093926;28;20496;-82
2021/03/31 01:33:33;;;;;;;19.23;9.93;;;11.60;57.80;;;;;;5046886;28;20388;-83
2021/03/31 01:35:59;;;;;;;21.23;10.43;;;11.50;58.00;;;;;;5083346;28;20464;-83
2021/03/31 01:38:27;;;;;;;17.67;9.32;;;11.50;58.30;;;;;;5075692;28;20396;-83
2021/03/31 01:40:55;;;;;;;25.55;10.68;;;11.50;58.60;;;;;;5083375;28;20476;-83
2021/03/31 01:43:23;;;;;;;19.38;9.73;;;11.40;59.40;;;;;;5113977;28;20063;-82
2021/03/31 01:45:56;;;;;;;19.60;10.63;;;11.40;58.70;;;;;;5114010;28;20032;-83
2021/03/31 01:48:31;;;;;;;20.50;9.48;;;11.40;58.70;;;;;;5104214;28;20058;-82
2021/03/31 01:51:03;;;;;;;19.45;9.35;;;11.30;58.70;;;;;;5093396;28;20046;-82
2021/03/31 01:53:30;;;;;;;19.50;9.93;;;11.30;58.80;;;;;;5093610;28;20024;-83
2021/03/31 01:55:56;;;;;;;19.73;9.60;;;11.30;58.70;;;;;;5093416;28;20035;-82
2021/03/31 01:58:23;;;;;;;22.60;9.48;;;11.30;58.40;;;;;;5093333;28;20033;-82
2021/03/31 02:00:50;;;;;;;16.90;8.98;;;11.20;58.30;;;;;;5075214;28;20069;-82
2021/03/31 02:03:18;;;;;;;17.75;9.38;;;11.20;58.30;;;;;;5093285;28;20036;-83
2021/03/31 02:05:45;;;;;;;15.30;8.73;;;11.20;58.40;;;;;;5093420;28;20476;-82
2021/03/31 02:08:13;;;;;;;17.08;8.77;;;11.10;58.20;;;;;;5093235;28;20020;-82
2021/03/31 02:10:41;;;;;;;16.45;8.27;;;11.10;58.30;;;;;;5075079;28;20043;-83
2021/03/31 02:13:11;;;;;;;17.48;8.43;;;11.10;58.30;;;;;;5093484;28;20039;-82
2021/03/31 02:15:39;;;;;;;15.93;8.30;;;11.10;58.40;;;;;;5075414;28;20024;-83
2021/03/31 02:18:11;;;;;;;16.08;7.28;;;11.10;58.50;;;;;;5075277;28;20039;-83
2021/03/31 02:20:37;;;;;;;14.90;7.30;;;11.00;58.70;;;;;;5092536;28;20024;-83
2021/03/31 02:23:04;;;;;;;16.85;8.23;;;11.00;58.70;;;;;;5092509;28;20032;-83
2021/03/31 02:25:30;;;;;;;10.80;7.50;;;11.00;58.90;;;;;;5091850;28;20020;-82
2021/03/31 02:27:56;;;;;;;10.70;7.35;;;11.00;59.30;;;;;;5078735;28;20024;-83
2021/03/31 02:30:24;;;;;;;12.10;7.05;;;11.00;59.10;;;;;;5085252;28;20077;-83
2021/03/31 02:32:54;;;;;;;17.88;7.47;;;11.00;59.00;;;;;;5100992;28;20031;-83
2021/03/31 02:35:23;;;;;;;19.05;7.47;;;11.00;59.10;;;;;;5103948;28;20540;-83
2021/03/31 02:37:55;;;;;;;12.25;7.25;;;11.00;59.20;;;;;;5078364;28;20637;-83
2021/03/31 02:40:22;;;;;;;13.65;7.05;;;11.00;59.10;;;;;;5095973;28;20073;-82
2021/03/31 02:42:48;;;;;;;15.98;7.32;;;10.90;59.10;;;;;;5101112;28;20044;-83
2021/03/31 02:45:16;;;;;;;14.02;6.70;;;10.90;59.10;;;;;;5106382;28;20107;-82
2021/03/31 02:47:43;;;;;;;13.98;7.00;;;10.90;59.10;;;;;;5096073;28;20056;-83
2021/03/31 02:50:12;;;;;;;14.20;6.72;;;10.90;59.20;;;;;;5061525;28;20473;-83
2021/03/31 02:52:39;;;;;;;13.93;6.85;;;10.90;59.20;;;;;;5109013;28;20027;-82
2021/03/31 02:55:08;;;;;;;16.27;6.18;;;10.80;59.10;;;;;;5077857;28;20430;-83
2021/03/31 02:57:35;;;;;;;12.40;6.18;;;10.90;59.10;;;;;;5101952;28;20086;-83
2021/03/31 03:00:03;;;;;;;13.05;6.53;;;10.80;59.10;;;;;;5095818;28;20028;-83
2021/03/31 03:02:29;;;;;;;12.00;5.93;;;10.80;59.20;;;;;;5073500;28;20028;-82
2021/03/31 03:04:56;;;;;;;9.38;6.00;;;10.80;59.20;;;;;;5096167;28;20054;-83
2021/03/31 03:07:22;;;;;;;13.57;7.00;;;10.80;59.40;;;;;;5103270;28;20028;-83
2021/03/31 03:09:47;;;;;;;12.07;6.50;;;10.80;59.60;;;;;;5078001;28;20388;-83
2021/03/31 03:12:15;;;;;;;11.77;6.38;;;10.80;59.80;;;;;;5084560;28;20028;-83
2021/03/31 03:14:47;;;;;;;11.30;6.00;;;10.80;60.10;;;;;;5095782;28;20165;-83
2021/03/31 03:17:14;;;;;;;13.73;6.55;;;10.80;60.30;;;;;;5100487;28;20024;-82
2021/03/31 03:19:40;;;;;;;12.80;5.90;;;10.80;60.40;;;;;;5095831;28;20099;-82
2021/03/31 03:22:07;;;;;;;13.90;6.07;;;10.80;60.40;;;;;;5115416;28;20505;-82
2021/03/31 03:24:35;;;;;;;12.50;6.53;;;10.80;60.70;;;;;;5098019;28;20058;-82
2021/03/31 03:27:02;;;;;;;16.88;6.28;;;10.70;60.70;;;;;;5095497;28;20070;-82
2021/03/31 03:29:28;;;;;;;14.05;6.13;;;10.70;60.90;;;;;;5112357;28;20110;-83
2021/03/31 03:31:54;;;;;;;13.13;5.88;;;10.70;61.00;;;;;;5098372;28;20054;-83
2021/03/31 03:34:21;;;;;;;13.15;6.78;;;10.70;61.10;;;;;;5100414;28;20031;-82
2021/03/31 03:36:49;;;;;;;12.00;6.35;;;10.70;61.10;;;;;;5077720;28;20035;-83
2021/03/31 03:39:15;;;;;;;12.75;5.97;;;10.70;61.30;;;;;;5095674;28;20048;-82
2021/03/31 03:41:43;;;;;;;14.85;6.25;;;10.60;61.10;;;;;;5095966;28;20056;-83
2021/03/31 03:44:09;;;;;;;14.13;6.18;;;10.60;62.00;;;;;;5095834;28;20066;-83
2021/03/31 03:46:36;;;;;;;12.95;5.90;;;10.60;61.40;;;;;;5077864;28;20032;-82
2021/03/31 03:49:03;;;;;;;9.98;5.68;;;10.60;61.30;;;;;;5095478;28;20028;-82
2021/03/31 03:51:30;;;;;;;9.93;5.25;;;10.60;61.30;;;;;;5095596;28;20421;-83
2021/03/31 03:53:56;;;;;;;11.93;6.03;;;10.60;61.20;;;;;;5098279;28;20031;-83
2021/03/31 03:56:22;;;;;;;15.65;5.95;;;10.60;61.40;;;;;;5095139;28;20028;-83
2021/03/31 03:58:48;;;;;;;12.30;5.60;;;10.60;61.60;;;;;;5086032;28;20035;-82
2021/03/31 04:01:14;;;;;;;11.18;5.28;;;10.50;61.60;;;;;;5109342;28;20081;-83
2021/03/31 04:03:40;;;;;;;10.50;5.82;;;10.60;61.90;;;;;;5060224;28;20538;-83
2021/03/31 04:06:08;;;;;;;12.07;5.60;;;10.50;61.90;;;;;;5077184;28;20084;-82
2021/03/31 04:08:34;;;;;;;13.40;6.43;;;10.50;62.00;;;;;;5095210;28;20115;-82
2021/03/31 04:11:01;;;;;;;13.52;6.60;;;10.50;62.00;;;;;;5094980;28;20039;-82
2021/03/31 04:13:30;;;;;;;9.27;5.82;;;10.50;62.10;;;;;;5101318;28;20096;-83
2021/03/31 04:16:18;;;;;;;13.73;6.03;;;10.50;62.40;;;;;;5115533;28;20028;-82
2021/03/31 04:18:45;;;;;;;12.38;6.45;;;10.50;62.50;;;;;;5076030;28;20464;-83
2021/03/31 04:21:14;;;;;;;18.40;5.95;;;10.40;62.50;;;;;;5094992;28;20035;-83
2021/03/31 04:23:40;;;;;;;13.90;6.40;;;10.40;62.50;;;;;;5076718;28;20051;-82
2021/03/31 04:26:09;;;;;;;14.63;6.57;;;10.40;62.60;;;;;;5094868;28;20480;-82
2021/03/31 04:28:36;;;;;;;11.85;5.97;;;10.40;62.80;;;;;;5094820;28;20485;-83
2021/03/31 04:31:05;;;;;;;11.52;6.03;;;10.30;62.90;;;;;;5094683;28;20122;-82
2021/03/31 04:33:31;;;;;;;;;;;10.30;63.00;;;;;;5095146;28;20477;-82
2021/03/31 04:35:57;;;;;;;16.90;6.50;;;10.20;62.80;;;;;;5095100;28;19927;-82
2021/03/31 04:38:22;;;;;;;12.38;5.70;;;10.20;63.20;;;;;;5094764;28;20020;-83
2021/03/31 04:40:57;;;;;;;13.85;6.30;;;10.20;63.40;;;;;;5076880;28;20032;-82
2021/03/31 04:43:26;;;;;;;18.65;6.28;;;10.20;63.60;;;;;;5073315;28;20044;-83
2021/03/31 04:45:57;;;;;;;;;;;10.20;63.80;;;;;;5073967;28;20028;-83
2021/03/31 04:48:23;;;;;;;15.63;6.28;;;10.20;63.70;;;;;;5094776;28;19910;-83
2021/03/31 04:50:49;;;;;;;14.90;6.63;;;10.10;63.80;;;;;;5093948;28;20099;-82
2021/03/31 04:53:14;;;;;;;12.70;6.20;;;10.10;63.90;;;;;;5076413;28;20048;-83
2021/03/31 04:55:40;;;;;;;12.60;6.22;;;10.10;64.00;;;;;;5094552;28;20032;-83
2021/03/31 04:58:06;;;;;;;11.95;6.43;;;10.10;64.20;;;;;;5078541;28;20027;-83
2021/03/31 05:00:31;;;;;;;16.13;7.15;;;10.10;64.40;;;;;;5072806;28;20069;-82
2021/03/31 05:02:57;;;;;;;18.05;6.90;;;10.10;64.50;;;;;;5072730;28;20025;-83
2021/03/31 05:05:22;;;;;;;14.75;6.50;;;10.00;64.50;;;;;;5072774;28;20035;-83
2021/03/31 05:07:48;;;;;;;13.85;6.72;;;10.00;64.60;;;;;;5074070;28;20491;-83
2021/03/31 05:10:14;;;;;;;17.20;7.20;;;10.00;64.70;;;;;;5074499;28;20107;-83
2021/03/31 05:12:39;;;;;;;15.88;6.57;;;10.00;64.80;;;;;;5081959;28;20029;-82
2021/03/31 05:15:09;;;;;;;17.85;6.95;;;10.00;64.80;;;;;;5056284;28;20020;-83
2021/03/31 05:17:35;;;;;;;15.52;6.68;;;9.90;64.70;;;;;;5093824;28;20032;-83
2021/03/31 05:20:02;;;;;;;17.95;6.78;;;9.90;64.70;;;;;;5094189;28;20086;-82
2021/03/31 05:22:28;;;;;;;14.32;6.60;;;9.90;64.80;;;;;;5075238;28;20032;-82
2021/03/31 05:24:54;;;;;;;16.83;6.35;;;9.90;64.90;;;;;;5073635;28;20060;-82
2021/03/31 05:27:20;;;;;;;17.98;6.18;;;9.90;65.00;;;;;;5073217;28;20438;-82
2021/03/31 05:29:45;;;;;;;12.20;6.50;;;9.90;65.10;;;;;;5072431;28;20021;-83
2021/03/31 05:32:11;;;;;;;15.70;6.72;;;9.90;65.20;;;;;;5073221;28;20039;-83
2021/03/31 05:34:37;;;;;;;15.32;6.13;;;9.90;65.10;;;;;;5073423;28;20028;-82
2021/03/31 05:37:03;;;;;;;16.30;6.65;;;9.90;65.20;;;;;;5073537;28;20426;-83
2021/03/31 05:39:29;;;;;;;14.45;6.00;;;10.00;65.40;;;;;;5068152;28;20114;-83
2021/03/31 05:41:54;;;;;;;11.20;5.88;;;10.00;65.40;;;;;;5073743;28;20122;-83
2021/03/31 05:44:21;;;;;;;9.85;6.10;;;10.00;65.40;;;;;;5075496;28;20063;-82
2021/03/31 05:46:49;;;;;;;14.30;6.40;;;10.00;65.50;;;;;;5093344;28;20036;-82
2021/03/31 05:49:15;;;;;;;14.20;5.90;;;10.00;65.60;;;;;;5074474;28;20480;-83
2021/03/31 05:51:41;;;;;;;15.88;6.28;;;10.00;65.60;;;;;;5093261;28;20088;-82
2021/03/31 05:54:07;;;;;;;18.67;6.25;;;10.10;65.70;;;;;;5094611;28;20071;-82
2021/03/31 05:56:33;;;;;;;15.10;6.20;;;10.10;66.40;;;;;;5075295;28;20114;-82
2021/03/31 05:59:03;;;;;;;16.20;5.90;;;10.10;65.70;;;;;;5112132;28;20114;-82
2021/03/31 06:01:29;;;;;;;18.95;6.63;;;10.20;65.60;;;;;;5094611;28;20024;-82
2021/03/31 06:03:58;;;;;;;22.00;6.22;;;10.20;65.40;;;;;;5095439;28;20036;-82
2021/03/31 06:06:25;;;;;;;15.05;6.47;;;10.30;65.30;;;;;;5092916;28;20043;-83
2021/03/31 06:08:50;;;;;;;15.27;6.38;;;10.30;65.20;;;;;;5075067;28;20028;-73
2021/03/31 06:11:17;;;;;;;13.30;5.78;;;10.40;65.40;;;;;;5041034;28;20039;-73
2021/03/31 06:13:56;;;;;;;11.75;5.75;;;10.40;65.30;;;;;;5099982;28;20082;-73
2021/03/31 06:16:32;;;;;;;12.55;5.85;;;10.50;65.10;;;;;;5092366;28;20051;-73
2021/03/31 06:19:21;;;;;;;13.70;5.93;;;10.50;64.90;;;;;;5092778;28;20028;-72
2021/03/31 06:22:06;;;;;;;;;;;10.60;64.90;;;;;;5098860;28;20535;-73
2021/03/31 06:24:34;;;;;;;15.82;5.50;;;10.70;64.50;;;;;;5092808;28;19904;-73
2021/03/31 06:27:00;;;;;;;16.65;5.95;;;10.70;64.20;;;;;;5092413;28;20024;-73
2021/03/31 06:29:43;;;;;;;13.00;6.20;;;10.80;64.00;;;;;;5074464;28;20025;-73
2021/03/31 06:32:19;;;;;;;12.25;5.65;;;11.00;63.70;;;;;;5094125;28;20379;-73
2021/03/31 06:34:53;;;;;;;12.27;5.35;;;11.10;63.30;;;;;;5099571;28;20020;-73
2021/03/31 06:37:33;;;;;;;9.88;5.30;;;11.20;62.80;;;;;;5074360;28;20032;-73
2021/03/31 06:39:58;;;;;;;9.63;5.18;;;11.40;62.50;;;;;;5074491;28;20028;-73
2021/03/31 06:42:46;;;;;;;11.60;5.35;;;11.60;62.00;;;;;;5104524;28;20050;-73
2021/03/31 06:47:46;;;;;;;12.32;6.22;;;11.80;61.30;;;;;;5074562;28;20057;-73
2021/03/31 06:50:14;;;;;;;14.25;5.78;;;12.00;60.90;;;;;;5092334;28;20036;-73
2021/03/31 06:53:00;;;;;;;14.40;6.17;;;12.10;60.50;;;;;;5106608;28;20093;-73
2021/03/31 06:55:27;;;;;;;12.43;6.30;;;12.30;60.20;;;;;;5102349;28;20373;-73
2021/03/31 06:57:55;;;;;;;15.95;7.05;;;12.40;59.80;;;;;;5091597;28;20016;-73
2021/03/31 07:00:35;;;;;;;16.58;6.32;;;12.50;59.40;;;;;;5077398;28;20372;-74
2021/03/31 07:03:05;;;;;;;11.98;6.22;;;12.70;59.20;;;;;;5095380;28;20590;-73
2021/03/31 07:05:33;;;;;;;14.90;5.97;;;12.80;58.80;;;;;;5112428;28;20063;-73
2021/03/31 07:08:15;;;;;;;10.52;6.30;;;13.00;59.00;;;;;;5100379;28;20043;-73
2021/03/31 07:10:48;;;;;;;13.18;6.72;;;13.10;57.90;;;;;;5075143;28;20047;-73
2021/03/31 07:13:32;;;;;;;12.68;6.20;;;13.30;57.50;;;;;;5080492;28;20028;-73
2021/03/31 07:15:59;;;;;;;18.00;6.80;;;13.50;57.20;;;;;;5078042;28;20028;-73
2021/03/31 07:18:27;;;;;;;16.95;6.60;;;13.60;56.80;;;;;;5095669;28;20100;-74
2021/03/31 07:20:53;;;;;;;14.07;6.72;;;13.70;56.40;;;;;;5103303;28;20024;-73
2021/03/31 07:23:21;;;;;;;15.48;7.07;;;13.80;56.00;;;;;;5082937;28;20024;-73
2021/03/31 07:25:47;;;;;;;13.88;7.03;;;13.90;55.60;;;;;;5109449;28;20472;-73
2021/03/31 07:28:18;;;;;;;17.70;6.63;;;14.00;55.30;;;;;;5104239;28;20113;-73
2021/03/31 07:30:43;;;;;;;17.25;7.43;;;14.10;55.00;;;;;;5095097;28;20047;-74
2021/03/31 07:33:17;;;;;;;12.57;6.43;;;14.20;54.90;;;;;;5104198;28;20028;-74
2021/03/31 07:35:44;;;;;;;14.02;6.50;;;14.40;55.00;;;;;;5109094;28;20043;-88
2021/03/31 07:38:13;;;;;;;9.85;6.05;;;14.50;54.90;;;;;;5096106;28;20031;-86
2021/03/31 07:40:40;;;;;;;12.25;6.35;;;14.60;54.50;;;;;;5096150;28;20020;-87
2021/03/31 07:43:12;;;;;;;18.08;6.95;;;14.80;54.20;;;;;;5095660;28;20085;-88
2021/03/31 07:45:45;;;;;;;13.32;7.10;;;14.90;53.80;;;;;;5096051;28;20024;-87
2021/03/31 07:48:13;;;;;;;15.52;7.90;;;15.00;53.30;;;;;;5096275;28;20139;-87
2021/03/31 07:50:39;;;;;;;13.15;6.72;;;15.20;52.90;;;;;;5095935;28;20024;-87
2021/03/31 07:53:07;;;;;;;13.68;7.05;;;15.30;52.70;;;;;;5095709;28;20024;-87
2021/03/31 07:55:38;;;;;;;14.77;6.80;;;15.40;52.30;;;;;;5095169;28;20055;-88
2021/03/31 07:58:16;;;;;;;14.77;6.55;;;15.50;52.20;;;;;;5106503;28;20085;-87
2021/03/31 08:00:56;;;;;;;14.18;7.38;;;15.70;51.90;;;;;;5097836;28;20028;-87
2021/03/31 08:03:28;;;;;;;17.83;7.10;;;15.80;51.60;;;;;;5093232;28;20380;-88
2021/03/31 08:06:08;;;;;;;16.52;6.78;;;16.00;51.20;;;;;;5098134;28;20016;-87
2021/03/31 08:09:04;;;;;;;16.10;6.82;;;16.10;51.00;;;;;;5115759;28;20062;-88
2021/03/31 08:11:38;;;;;;;17.40;7.68;;;16.30;50.80;;;;;;5088715;28;20036;-87
2021/03/31 08:14:09;;;;;;;16.40;7.43;;;16.50;50.30;;;;;;5095095;28;20024;-87
2021/03/31 08:16:38;;;;;;;11.70;6.90;;;16.50;49.90;;;;;;5103891;28;20023;-87
2021/03/31 08:19:16;;;;;;;16.92;7.72;;;16.70;49.90;;;;;;5115488;28;20024;-87
2021/03/31 08:21:44;;;;;;;14.25;7.82;;;16.80;49.30;;;;;;5097448;28;20031;-87
2021/03/31 08:24:10;;;;;;;19.15;7.13;;;17.00;49.00;;;;;;5079734;28;20038;-87
2021/03/31 08:26:43;;;;;;;17.90;7.28;;;17.00;48.40;;;;;;5087740;28;20085;-79
2021/03/31 08:29:10;;;;;;;12.88;6.85;;;17.10;47.60;;;;;;5093432;28;20032;-75
2021/03/31 08:31:41;;;;;;;17.52;6.97;;;17.30;47.60;;;;;;5094411;28;20085;-76
2021/03/31 08:34:11;;;;;;;11.60;5.85;;;17.40;47.30;;;;;;5114736;28;20088;-75
2021/03/31 08:36:37;;;;;;;10.20;6.05;;;17.50;47.00;;;;;;5059569;28;20073;-75
2021/03/31 08:39:07;;;;;;;10.88;6.80;;;17.60;46.90;;;;;;5094599;28;20111;-75
2021/03/31 08:41:38;;;;;;;13.38;6.85;;;17.80;46.00;;;;;;5103849;28;20043;-75
2021/03/31 08:44:26;;;;;;;12.68;6.93;;;17.90;45.90;;;;;;5076079;28;20166;-76
2021/03/31 08:46:53;;;;;;;16.85;7.28;;;18.10;45.60;;;;;;5089750;28;20028;-75
2021/03/31 08:49:23;;;;;;;12.68;6.53;;;18.20;45.40;;;;;;5089872;28;20495;-76
2021/03/31 08:51:51;;;;;;;10.77;6.25;;;18.30;45.20;;;;;;5094161;28;20024;-75
2021/03/31 08:54:30;;;;;;;11.73;6.50;;;18.50;45.00;;;;;;5087379;28;20436;-75
2021/03/31 08:57:00;;;;;;;;;;;18.60;44.80;;;;;;5078567;28;20058;-75
2021/03/31 08:59:42;;;;;;;10.40;5.38;;;18.60;44.70;;;;;;5098113;28;20603;-76
2021/03/31 09:02:08;;;;;;;10.40;6.18;;;18.80;44.90;;;;;;5076401;28;20032;-75
2021/03/31 09:04:34;;;;;;;9.73;6.07;;;19.00;44.60;;;;;;5093724;28;20101;-75
2021/03/31 09:07:08;;;;;;;12.48;6.15;;;19.10;44.30;;;;;;5094763;28;20035;-75
2021/03/31 09:09:35;;;;;;;11.70;5.38;;;19.30;44.10;;;;;;5094019;28;20083;-74
2021/03/31 09:12:03;;;;;;;11.93;6.07;;;19.50;44.00;;;;;;5093119;28;20508;-74
2021/03/31 09:14:29;;;;;;;14.63;5.32;;;19.60;43.70;;;;;;5093527;28;20028;-74
2021/03/31 09:17:02;;;;;;;10.05;6.15;;;19.80;43.50;;;;;;5093869;28;20511;-74
2021/03/31 09:19:30;;;;;;;14.07;6.05;;;20.10;42.80;;;;;;5093606;28;20039;-74
2021/03/31 09:21:57;;;;;;;13.63;5.55;;;20.20;42.80;;;;;;5074874;28;20058;-74
2021/03/31 09:24:27;;;;;;;11.68;5.32;;;20.40;42.50;;;;;;5074875;28;20480;-74
2021/03/31 09:26:58;;;;;;;10.05;5.22;;;20.60;42.10;;;;;;5075234;28;20435;-74
2021/03/31 09:29:25;;;;;;;11.63;5.35;;;20.80;41.50;;;;;;5075597;28;20476;-74
2021/03/31 09:31:51;;;;;;;8.88;4.88;;;20.90;41.10;;;;;;5076741;28;20032;-74
2021/03/31 09:34:17;;;;;;;9.18;4.80;;;21.10;40.80;;;;;;5093203;28;20024;-74
2021/03/31 09:37:02;;;;;;;6.85;4.65;;;21.30;40.30;;;;;;5075291;28;20486;-74
2021/03/31 09:39:43;;;;;;;7.82;4.35;;;21.50;39.70;;;;;;5083344;28;20024;-74
2021/03/31 09:42:15;;;;;;;9.60;4.88;;;21.80;39.20;;;;;;5084838;28;20032;-74
2021/03/31 09:44:41;;;;;;;10.88;5.00;;;22.00;38.20;;;;;;5092780;28;20127;-74
2021/03/31 09:47:07;;;;;;;13.82;4.60;;;22.10;37.70;;;;;;5099530;28;20568;-74
2021/03/31 09:49:33;;;;;;;9.18;4.60;;;22.10;37.70;;;;;;5093002;28;20484;-74
2021/03/31 09:52:00;;;;;;;7.25;4.80;;;22.30;37.50;;;;;;5094210;28;20496;-74
2021/03/31 09:54:27;;;;;;;10.32;5.63;;;22.40;36.60;;;;;;5092785;28;20114;-74
2021/03/31 09:56:53;;;;;;;10.65;4.70;;;22.40;35.60;;;;;;5092926;28;20546;-74
2021/03/31 09:59:20;;;;;;;8.98;4.93;;;22.50;35.80;;;;;;5093592;28;20489;-74
2021/03/31 10:01:46;;;;;;;9.07;4.57;;;22.70;35.90;;;;;;5074882;28;20115;-74
2021/03/31 10:04:12;;;;;;;7.47;4.15;;;22.80;35.70;;;;;;5093078;28;20024;-74
2021/03/31 10:06:38;;;;;;;11.90;4.85;;;23.00;36.00;;;;;;5092720;28;20032;-74
2021/03/31 10:09:19;;;;;;;7.32;4.53;;;23.10;35.50;;;;;;5093009;28;20077;-74
2021/03/31 10:11:46;;;;;;;7.57;4.55;;;23.20;35.20;;;;;;5074208;28;20115;-74
2021/03/31 10:14:21;;;;;;;7.22;4.20;;;23.30;34.90;;;;;;5072645;28;20036;-74
2021/03/31 10:16:48;;;;;;;19.15;4.72;;;23.60;35.30;;;;;;5111090;28;20059;-75
2021/03/31 10:19:15;;;;;;;5.97;4.25;;;23.70;35.10;;;;;;5093933;28;20487;-74
2021/03/31 10:21:41;;;;;;;9.93;5.43;;;23.80;34.80;;;;;;5073619;28;20043;-75
2021/03/31 10:24:10;;;;;;;10.10;5.15;;;23.90;33.70;;;;;;5092052;28;20373;-75
2021/03/31 10:26:37;;;;;;;;;;;24.00;33.70;;;;;;5095921;28;20063;-75
2021/03/31 10:29:20;;;;;;;7.82;5.03;;;24.00;34.00;;;;;;5102937;28;19994;-75
2021/03/31 10:31:46;;;;;;;9.20;5.70;;;24.00;33.80;;;;;;5106033;28;20028;-75
2021/03/31 10:34:14;;;;;;;16.48;5.65;;;24.20;33.60;;;;;;5101193;28;20166;-75
2021/03/31 10:48:19;;;;;;;11.55;5.70;;;24.80;34.40;;;;;;5094809;28;20047;-75
2021/03/31 10:53:13;;;;;;;9.95;5.55;;;25.00;33.90;;;;;;5104638;28;20468;-76
2021/03/31 10:55:43;;;;;;;10.50;5.65;;;25.10;33.80;;;;;;5077872;28;20086;-75
2021/03/31 10:58:10;;;;;;;8.90;5.88;;;25.10;34.50;;;;;;5096270;28;20388;-75
2021/03/31 11:00:36;;;;;;;13.98;6.80;;;25.00;33.90;;;;;;5088244;28;20418;-75
2021/03/31 11:03:02;;;;;;;13.13;5.93;;;25.00;32.40;;;;;;5116473;28;20096;-75
2021/03/31 11:05:28;;;;;;;13.85;5.88;;;24.90;32.80;;;;;;5105364;28;20035;-75
2021/03/31 11:07:54;;;;;;;11.95;7.30;;;24.90;33.20;;;;;;5078048;28;20032;-75
2021/03/31 11:10:20;;;;;;;11.35;6.93;;;24.90;32.50;;;;;;5098013;28;20024;-75
2021/03/31 11:12:45;;;;;;;17.02;7.68;;;24.90;32.60;;;;;;5098168;28;20043;-75
2021/03/31 11:15:14;;;;;;;12.18;6.63;;;24.90;32.90;;;;;;5107364;28;20077;-75
2021/03/31 11:28:03;;;;;;;9.10;4.80;;;25.10;32.60;;;;;;5099658;28;20410;-75
2021/03/31 11:30:28;;;;;;;6.50;4.38;;;25.20;32.40;;;;;;5095498;28;20038;-75
2021/03/31 11:32:54;;;;;;;12.10;4.38;;;25.30;32.10;;;;;;5087291;28;20400;-75
2021/03/31 11:35:19;;;;;;;10.38;3.70;;;25.40;31.70;;;;;;5086528;28;20020;-75
2021/03/31 11:37:45;;;;;;;9.55;3.92;;;25.60;31.50;;;;;;5115098;28;20027;-75
2021/03/31 11:40:11;;;;;;;7.07;3.38;;;25.60;31.80;;;;;;5095718;28;20035;-75
2021/03/31 11:42:37;;;;;;;7.40;3.92;;;25.80;31.70;;;;;;5078345;28;20055;-75
2021/03/31 11:45:03;;;;;;;8.48;4.38;;;25.80;31.80;;;;;;5107902;28;20511;-75
2021/03/31 11:47:29;;;;;;;11.15;5.60;;;25.90;31.70;;;;;;5105202;28;20027;-75
2021/03/31 11:49:54;;;;;;;11.30;5.93;;;26.00;31.10;;;;;;5115882;28;20038;-75
2021/03/31 11:52:21;;;;;;;10.98;5.13;;;25.90;31.30;;;;;;5095090;28;20123;-75
2021/03/31 11:54:47;;;;;;;8.85;4.35;;;25.90;31.30;;;;;;5077352;28;20642;-75
2021/03/31 11:57:13;;;;;;;9.02;4.22;;;26.00;31.80;;;;;;5095198;28;20036;-75
2021/03/31 11:59:38;;;;;;;10.50;3.83;;;26.10;31.90;;;;;;5095242;28;20112;-75
2021/03/31 12:02:04;;;;;;;5.75;3.95;;;26.30;31.00;;;;;;5076866;28;20063;-75
2021/03/31 12:04:29;;;;;;;10.88;5.35;;;26.40;31.30;;;;;;5076727;28;20038;-75
2021/03/31 12:06:55;;;;;;;16.15;6.25;;;26.50;31.20;;;;;;5095024;28;20062;-75
2021/03/31 12:09:23;;;;;;;12.10;5.53;;;26.50;30.70;;;;;;5096228;28;20035;-75
2021/03/31 12:11:48;;;;;;;9.38;5.00;;;26.50;31.10;;;;;;5076859;28;20118;-75
2021/03/31 12:14:14;;;;;;;8.52;4.38;;;26.50;31.80;;;;;;5096382;28;20107;-75
2021/03/31 12:16:39;;;;;;;7.38;4.60;;;26.60;31.50;;;;;;5099651;28;20055;-75
2021/03/31 12:19:05;;;;;;;12.77;5.63;;;26.60;31.30;;;;;;5111356;28;20038;-75
2021/03/31 12:21:31;;;;;;;16.40;5.15;;;26.60;31.30;;;;;;5062495;28;20031;-75
2021/03/31 12:23:56;;;;;;;10.73;4.88;;;26.60;30.70;;;;;;5080511;28;20027;-75
2021/03/31 12:26:22;;;;;;;8.68;5.43;;;26.60;31.10;;;;;;5101840;28;20123;-75
2021/03/31 12:28:51;;;;;;;5.07;3.95;;;26.60;30.70;;;;;;5076206;28;20115;-75
2021/03/31 12:31:18;;;;;;;6.85;4.20;;;26.70;31.60;;;;;;5096899;28;20538;-74
2021/03/31 12:33:43;;;;;;;10.25;4.88;;;26.70;31.30;;;;;;5113521;28;20020;-75
2021/03/31 12:36:11;;;;;;;6.95;3.58;;;26.80;31.50;;;;;;5102744;28;20374;-75
2021/03/31 12:38:37;;;;;;;7.30;4.50;;;27.00;31.40;;;;;;5078048;28;20058;-75
2021/03/31 12:41:03;;;;;;;6.82;4.25;;;27.20;31.60;;;;;;5093742;28;20051;-75
2021/03/31 12:43:29;;;;;;;10.30;5.18;;;27.30;31.30;;;;;;5059088;28;20040;-75
2021/03/31 12:45:55;;;;;;;8.45;4.45;;;27.40;31.30;;;;;;5093369;28;20028;-76
2021/03/31 12:48:21;;;;;;;7.57;4.70;;;27.50;31.20;;;;;;5075738;28;20024;-76
2021/03/31 12:50:49;;;;;;;6.07;3.67;;;27.50;30.90;;;;;;5076105;28;20036;-76
2021/03/31 12:53:19;;;;;;;5.70;3.55;;;27.60;31.00;;;;;;5094203;28;20036;-76
2021/03/31 12:55:46;;;;;;;5.60;3.40;;;27.70;30.70;;;;;;5076092;28;20031;-76
2021/03/31 12:58:17;;;;;;;6.53;4.00;;;27.80;30.90;;;;;;5076057;28;20115;-76
2021/03/31 13:00:43;;;;;;;5.68;3.40;;;27.90;30.60;;;;;;5075840;28;20400;-76
2021/03/31 13:03:08;;;;;;;4.13;2.83;;;28.10;30.30;;;;;;5094180;28;20036;-76
2021/03/31 13:05:36;;;;;;;7.53;3.67;;;28.10;30.30;;;;;;5076195;28;20024;-77
2021/03/31 13:08:03;;;;;;;8.18;3.08;;;28.20;30.20;;;;;;5076390;28;20099;-76
2021/03/31 13:10:28;;;;;;;5.10;3.20;;;28.20;30.10;;;;;;5075144;28;20373;-76
2021/03/31 13:12:57;;;;;;;5.95;2.97;;;28.20;30.00;;;;;;5059922;28;20039;-76
2021/03/31 13:23:37;;;;;;;3.75;2.25;;;28.10;29.80;;;;;;5093902;28;20093;-76